Time;durP1;ratioP1;P1;durP2;ratioP2;P2;SDS_P1;SDS_P2;PMS_P1;PMS_P2;Temp;Humidity;BMP_temperature;BMP_pressure;BME280_temperature;BME280_humidity;BME280_pressure;Samples;Min_cycle;Max_cycle;Signal;HPM_P1;HPM_P2
2021/09/25 00:02:01;;;;;;;8.70;7.50;;;;;;;;;;5034001;28;20550;-61
2021/09/25 00:04:28;;;;;;;11.53;7.77;;;;;;;;;;5033305;28;20495;-61
2021/09/25 00:06:55;;;;;;;10.17;8.60;;;;;;;;;;5032797;28;20938;-61
2021/09/25 00:09:22;;;;;;;10.53;8.30;;;;;;;;;;5033383;28;20530;-61
2021/09/25 00:11:50;;;;;;;10.67;8.30;;;;;;;;;;5032827;28;21050;-60
2021/09/25 00:14:17;;;;;;;10.60;8.40;;;;;;;;;;5033134;28;20552;-61
2021/09/25 00:16:45;;;;;;;9.23;8.27;;;;;;;;;;5032807;28;20446;-61
2021/09/25 00:19:13;;;;;;;12.43;9.07;;;;;;;;;;5032865;28;20967;-61
2021/09/25 00:21:40;;;;;;;11.53;8.80;;;;;;;;;;5032762;28;20528;-61
2021/09/25 00:24:08;;;;;;;10.53;8.23;;;;;;;;;;5034580;28;20509;-61
2021/09/25 00:26:35;;;;;;;10.80;9.03;;;;;;;;;;5037232;28;20454;-61
2021/09/25 00:29:02;;;;;;;11.60;9.00;;;;;;;;;;5037093;28;20442;-61
2021/09/25 00:31:29;;;;;;;13.30;8.83;;;;;;;;;;5036742;28;21051;-59
2021/09/25 00:33:58;;;;;;;11.23;9.07;;;;;;;;;;5037080;28;20473;-59
2021/09/25 00:36:25;;;;;;;12.23;9.07;;;;;;;;;;5036590;28;20454;-59
2021/09/25 00:38:52;;;;;;;9.90;8.90;;;;;;;;;;5036896;28;20443;-59
2021/09/25 00:41:20;;;;;;;12.13;9.10;;;;;;;;;;5036770;28;20465;-60
2021/09/25 00:43:47;;;;;;;11.70;8.93;;;;;;;;;;5036863;28;20451;-60
2021/09/25 00:46:15;;;;;;;11.50;9.63;;;;;;;;;;5036545;28;20930;-61
2021/09/25 00:48:42;;;;;;;12.10;9.00;;;;;;;;;;5036463;28;20450;-60
2021/09/25 00:51:11;;;;;;;12.97;10.90;;;;;;;;;;5036639;28;20470;-60
2021/09/25 00:53:38;;;;;;;12.30;9.80;;;;;;;;;;5036271;28;20478;-59
2021/09/25 00:56:06;;;;;;;17.10;10.53;;;;;;;;;;5036586;28;20451;-59
2021/09/25 00:58:33;;;;;;;11.70;10.00;;;;;;;;;;5036260;28;20943;-60
2021/09/25 01:01:00;;;;;;;11.97;9.67;;;;;;;;;;5036029;28;20507;-60
2021/09/25 01:03:28;;;;;;;11.87;10.07;;;;;;;;;;5036358;28;20450;-60
2021/09/25 01:05:55;;;;;;;15.20;11.17;;;;;;;;;;5036438;28;20454;-61
2021/09/25 01:08:23;;;;;;;12.70;10.60;;;;;;;;;;5036265;28;20446;-60
2021/09/25 01:10:51;;;;;;;15.77;11.10;;;;;;;;;;5036229;28;20469;-61
2021/09/25 01:13:19;;;;;;;13.43;10.80;;;;;;;;;;5036254;28;20548;-61
2021/09/25 01:15:47;;;;;;;13.83;10.97;;;;;;;;;;5036004;28;20447;-61
2021/09/25 01:18:15;;;;;;;14.83;12.53;;;;;;;;;;5036374;28;20877;-61
2021/09/25 01:20:42;;;;;;;14.13;11.40;;;;;;;;;;5036081;28;20541;-61
2021/09/25 01:23:11;;;;;;;13.87;12.53;;;;;;;;;;5035855;28;20447;-61
2021/09/25 01:25:38;;;;;;;12.17;10.83;;;;;;;;;;5035946;28;20939;-61
2021/09/25 01:28:06;;;;;;;13.13;11.73;;;;;;;;;;5035820;28;20455;-61
2021/09/25 01:30:33;;;;;;;12.47;10.57;;;;;;;;;;5035727;28;20467;-61
2021/09/25 01:33:02;;;;;;;12.63;10.80;;;;;;;;;;5037628;28;20595;-61
2021/09/25 01:35:29;;;;;;;11.80;9.93;;;;;;;;;;5036289;28;20446;-61
2021/09/25 01:37:56;;;;;;;14.97;10.53;;;;;;;;;;5036504;28;20846;-61
2021/09/25 01:40:25;;;;;;;12.17;10.90;;;;;;;;;;5036440;28;20538;-61
2021/09/25 01:42:53;;;;;;;11.93;10.33;;;;;;;;;;5036664;28;20556;-61
2021/09/25 01:45:21;;;;;;;16.50;11.07;;;;;;;;;;5035875;28;20447;-61
2021/09/25 01:47:48;;;;;;;12.10;9.53;;;;;;;;;;5035953;28;20531;-61
2021/09/25 01:50:16;;;;;;;14.43;9.90;;;;;;;;;;5035417;28;20508;-61
2021/09/25 01:52:43;;;;;;;12.70;9.60;;;;;;;;;;5035935;28;20496;-61
2021/09/25 01:55:11;;;;;;;11.10;9.67;;;;;;;;;;5035803;28;20515;-61
2021/09/25 01:57:40;;;;;;;11.90;9.80;;;;;;;;;;5035735;28;20449;-61
2021/09/25 02:00:08;;;;;;;15.33;8.83;;;;;;;;;;5035340;28;20497;-62
2021/09/25 02:02:35;;;;;;;13.40;10.00;;;;;;;;;;5035790;28;20442;-61
2021/09/25 02:05:03;;;;;;;11.90;8.50;;;;;;;;;;5035761;28;20437;-61
2021/09/25 02:07:30;;;;;;;12.23;9.30;;;;;;;;;;5035732;28;20433;-61
2021/09/25 02:09:57;;;;;;;11.23;8.57;;;;;;;;;;5035514;28;20447;-61
2021/09/25 02:12:24;;;;;;;12.23;8.80;;;;;;;;;;5035104;28;20516;-61
2021/09/25 02:14:53;;;;;;;12.90;10.10;;;;;;;;;;5035127;28;21006;-61
2021/09/25 02:17:21;;;;;;;14.60;10.17;;;;;;;;;;5035092;28;20935;-61
2021/09/25 02:19:49;;;;;;;13.90;10.90;;;;;;;;;;5035887;28;20477;-61
2021/09/25 02:22:16;;;;;;;12.33;10.43;;;;;;;;;;5035254;28;20548;-61
2021/09/25 02:24:43;;;;;;;12.67;11.40;;;;;;;;;;5035545;28;20617;-61
2021/09/25 02:27:11;;;;;;;14.40;11.10;;;;;;;;;;5035036;28;20792;-60
2021/09/25 02:29:38;;;;;;;13.20;11.77;;;;;;;;;;5035206;28;20442;-60
2021/09/25 02:32:07;;;;;;;13.20;11.60;;;;;;;;;;5035038;28;20520;-61
2021/09/25 02:34:35;;;;;;;14.20;12.47;;;;;;;;;;5035075;28;20532;-61
2021/09/25 02:37:02;;;;;;;13.40;12.00;;;;;;;;;;5035488;28;20456;-61
2021/09/25 02:39:30;;;;;;;13.03;11.70;;;;;;;;;;5034920;28;20442;-61
2021/09/25 02:41:57;;;;;;;14.20;11.53;;;;;;;;;;5034785;28;20528;-61
2021/09/25 02:44:25;;;;;;;16.13;13.30;;;;;;;;;;5034751;28;20498;-61
2021/09/25 02:46:52;;;;;;;15.57;13.97;;;;;;;;;;5033745;28;20506;-61
2021/09/25 02:49:22;;;;;;;15.43;13.73;;;;;;;;;;5034548;28;20446;-60
2021/09/25 02:51:49;;;;;;;16.27;14.73;;;;;;;;;;5034474;28;20514;-61
2021/09/25 02:54:17;;;;;;;15.70;14.20;;;;;;;;;;5034474;28;20557;-60
2021/09/25 02:56:44;;;;;;;17.67;16.00;;;;;;;;;;5034151;28;20942;-60
2021/09/25 02:59:11;;;;;;;18.00;16.20;;;;;;;;;;5034045;28;20520;-60
2021/09/25 03:01:38;;;;;;;18.37;16.43;;;;;;;;;;5035358;28;20489;-60
2021/09/25 03:04:06;;;;;;;17.93;16.23;;;;;;;;;;5035321;28;20491;-61
2021/09/25 03:06:34;;;;;;;18.90;16.80;;;;;;;;;;5034038;28;20504;-60
2021/09/25 03:09:01;;;;;;;17.93;14.67;;;;;;;;;;5034265;28;20523;-61
2021/09/25 03:11:29;;;;;;;16.47;14.97;;;;;;;;;;5033790;28;20473;-61
2021/09/25 03:13:56;;;;;;;15.87;14.40;;;;;;;;;;5034067;28;20528;-61
2021/09/25 03:16:23;;;;;;;17.37;13.57;;;;;;;;;;5033771;28;20943;-61
2021/09/25 03:18:51;;;;;;;16.47;14.80;;;;;;;;;;5034010;28;20442;-61
2021/09/25 03:21:18;;;;;;;18.20;14.63;;;;;;;;;;5033981;28;20914;-61
2021/09/25 03:23:46;;;;;;;17.70;14.10;;;;;;;;;;5033673;28;20508;-61
2021/09/25 03:26:14;;;;;;;15.27;12.73;;;;;;;;;;5033985;28;20445;-61
2021/09/25 03:28:41;;;;;;;16.67;14.70;;;;;;;;;;5033532;28;20446;-61
2021/09/25 03:31:08;;;;;;;15.83;14.20;;;;;;;;;;5033442;28;20465;-60
2021/09/25 03:33:35;;;;;;;14.33;12.80;;;;;;;;;;5033685;28;20511;-60
2021/09/25 03:36:03;;;;;;;14.70;13.17;;;;;;;;;;5033726;28;20868;-61
2021/09/25 03:38:31;;;;;;;15.70;14.20;;;;;;;;;;5033433;28;20509;-61
2021/09/25 03:41:00;;;;;;;14.60;12.70;;;;;;;;;;5033651;28;20901;-62
2021/09/25 03:43:27;;;;;;;14.40;12.90;;;;;;;;;;5033650;28;20457;-61
2021/09/25 03:45:55;;;;;;;15.10;13.70;;;;;;;;;;5033362;28;20462;-61
2021/09/25 03:48:22;;;;;;;14.63;13.07;;;;;;;;;;5033351;28;20809;-60
2021/09/25 03:50:49;;;;;;;15.10;13.60;;;;;;;;;;5033283;28;20531;-60
2021/09/25 03:53:16;;;;;;;14.43;13.03;;;;;;;;;;5033608;28;20501;-60
2021/09/25 03:55:44;;;;;;;14.63;13.23;;;;;;;;;;5033358;28;21131;-61
2021/09/25 03:58:12;;;;;;;14.77;13.37;;;;;;;;;;5033235;28;20447;-60
2021/09/25 04:00:43;;;;;;;15.33;13.70;;;;;;;;;;5032915;28;20539;-60
2021/09/25 04:03:10;;;;;;;14.70;13.30;;;;;;;;;;5033160;28;20975;-61
2021/09/25 04:08:39;;;;;;;12.90;11.70;;;;;;;;;;5091687;28;20607;-61
2021/09/25 04:11:06;;;;;;;13.97;12.47;;;;;;;;;;5090617;28;20475;-60
2021/09/25 04:13:33;;;;;;;13.00;11.80;;;;;;;;;;5091084;28;20437;-61
2021/09/25 04:16:01;;;;;;;14.10;12.47;;;;;;;;;;5096039;28;20511;-61
2021/09/25 04:18:28;;;;;;;17.60;12.23;;;;;;;;;;5093003;28;20824;-60
2021/09/25 04:20:55;;;;;;;14.43;13.03;;;;;;;;;;5091068;28;20528;-62
2021/09/25 04:23:22;;;;;;;13.50;12.10;;;;;;;;;;5090875;28;20436;-61
2021/09/25 04:25:51;;;;;;;16.40;12.27;;;;;;;;;;5090885;28;20446;-61
2021/09/25 04:28:18;;;;;;;12.60;11.37;;;;;;;;;;5090386;28;20525;-61
2021/09/25 04:30:46;;;;;;;13.93;12.03;;;;;;;;;;5090398;28;20467;-61
2021/09/25 04:33:13;;;;;;;13.77;12.40;;;;;;;;;;5090294;28;20447;-60
2021/09/25 04:35:40;;;;;;;12.27;10.93;;;;;;;;;;5090478;28;20448;-61
2021/09/25 04:38:08;;;;;;;12.90;11.50;;;;;;;;;;5090236;28;20984;-61
2021/09/25 04:40:35;;;;;;;12.93;11.57;;;;;;;;;;5090492;28;20460;-61
2021/09/25 04:43:04;;;;;;;15.23;11.70;;;;;;;;;;5090611;28;20524;-61
2021/09/25 04:45:32;;;;;;;14.17;11.30;;;;;;;;;;5090759;28;20935;-60
2021/09/25 04:47:59;;;;;;;18.63;10.90;;;;;;;;;;5090310;28;20550;-60
2021/09/25 04:50:29;;;;;;;12.17;10.30;;;;;;;;;;5089946;28;20451;-61
2021/09/25 04:52:56;;;;;;;12.40;11.10;;;;;;;;;;5090369;28;20823;-60
2021/09/25 04:55:23;;;;;;;12.83;10.90;;;;;;;;;;5090225;28;20447;-61
2021/09/25 04:57:50;;;;;;;12.27;11.07;;;;;;;;;;5089991;28;20444;-61
2021/09/25 05:00:19;;;;;;;15.73;11.27;;;;;;;;;;5092078;28;20439;-61
2021/09/25 05:02:47;;;;;;;12.23;10.17;;;;;;;;;;5094893;28;20452;-61
2021/09/25 05:05:14;;;;;;;13.30;11.27;;;;;;;;;;5090545;28;20928;-62
2021/09/25 05:07:41;;;;;;;12.17;10.50;;;;;;;;;;5089569;28;20477;-61
2021/09/25 05:10:09;;;;;;;11.23;9.90;;;;;;;;;;5089843;28;20592;-61
2021/09/25 05:12:36;;;;;;;11.97;10.77;;;;;;;;;;5089778;28;20498;-60
2021/09/25 05:15:04;;;;;;;11.57;10.37;;;;;;;;;;5089661;28;20501;-61
2021/09/25 05:17:32;;;;;;;10.97;9.97;;;;;;;;;;5089294;28;20494;-60
2021/09/25 05:19:59;;;;;;;9.73;8.73;;;;;;;;;;5075599;28;21014;-60
2021/09/25 05:22:27;;;;;;;10.33;9.33;;;;;;;;;;5075540;28;20984;-61
2021/09/25 05:24:54;;;;;;;11.20;9.97;;;;;;;;;;5075642;28;20448;-61
2021/09/25 05:27:25;;;;;;;12.20;9.83;;;;;;;;;;5076587;28;20554;-61
2021/09/25 05:29:52;;;;;;;16.20;10.50;;;;;;;;;;5075602;28;20444;-61
2021/09/25 05:32:19;;;;;;;13.37;10.70;;;;;;;;;;5075768;28;20515;-60
2021/09/25 05:34:48;;;;;;;11.60;10.40;;;;;;;;;;5075499;28;21013;-60
2021/09/25 05:37:17;;;;;;;12.03;10.93;;;;;;;;;;5075791;28;20860;-59
2021/09/25 05:39:44;;;;;;;16.03;10.50;;;;;;;;;;5075388;28;21027;-59
2021/09/25 05:42:11;;;;;;;11.77;10.67;;;;;;;;;;5075764;28;20590;-60
2021/09/25 05:44:44;;;;;;;11.57;10.47;;;;;;;;;;5075856;28;20456;-60
2021/09/25 05:47:11;;;;;;;13.67;11.10;;;;;;;;;;5075333;28;20514;-61
2021/09/25 05:49:39;;;;;;;12.10;10.90;;;;;;;;;;5075539;28;20535;-61
2021/09/25 05:52:09;;;;;;;11.50;9.97;;;;;;;;;;5075446;28;20464;-61
2021/09/25 05:54:37;;;;;;;12.30;10.53;;;;;;;;;;5075446;28;20475;-61
2021/09/25 05:57:04;;;;;;;10.83;9.83;;;;;;;;;;5075398;28;20452;-60
2021/09/25 05:59:31;;;;;;;13.87;10.23;;;;;;;;;;5075749;28;20517;-60
2021/09/25 06:01:59;;;;;;;11.53;10.43;;;;;;;;;;5077627;28;20467;-61
2021/09/25 06:04:26;;;;;;;11.93;10.37;;;;;;;;;;5098193;22;20556;-57
2021/09/25 06:06:53;;;;;;;14.53;11.47;;;;;;;;;;5035037;28;20438;-57
2021/09/25 06:09:22;;;;;;;10.83;9.83;;;;;;;;;;5034775;28;20865;-58
2021/09/25 06:11:51;;;;;;;12.07;10.80;;;;;;;;;;5035062;28;20449;-57
2021/09/25 06:14:18;;;;;;;10.80;9.70;;;;;;;;;;5035660;28;20494;-59
2021/09/25 06:16:46;;;;;;;10.20;9.03;;;;;;;;;;5034755;28;20442;-59
2021/09/25 06:19:14;;;;;;;9.83;8.70;;;;;;;;;;5034872;28;20443;-58
2021/09/25 06:21:41;;;;;;;11.23;9.93;;;;;;;;;;5034963;28;20449;-57
2021/09/25 06:24:08;;;;;;;10.83;9.63;;;;;;;;;;5034779;28;20462;-58
2021/09/25 06:26:37;;;;;;;12.53;8.83;;;;;;;;;;5034860;28;20443;-58
2021/09/25 06:29:05;;;;;;;11.83;8.90;;;;;;;;;;5034739;28;20532;-58
2021/09/25 06:31:32;;;;;;;9.07;8.17;;;;;;;;;;5033814;28;20445;-58
2021/09/25 06:33:59;;;;;;;9.17;8.27;;;;;;;;;;5034356;28;20893;-58
2021/09/25 06:36:26;;;;;;;9.70;8.70;;;;;;;;;;5034734;28;20447;-58
2021/09/25 06:38:54;;;;;;;11.17;10.10;;;;;;;;;;5034313;28;21021;-58
2021/09/25 06:41:21;;;;;;;10.80;9.30;;;;;;;;;;5034450;28;20446;-60
2021/09/25 06:43:50;;;;;;;10.23;8.80;;;;;;;;;;5034353;28;20450;-58
2021/09/25 06:46:17;;;;;;;11.50;9.90;;;;;;;;;;5034438;28;20505;-59
2021/09/25 06:48:46;;;;;;;10.83;9.33;;;;;;;;;;5034254;28;20833;-58
2021/09/25 06:51:15;;;;;;;14.47;10.90;;;;;;;;;;5034309;28;20957;-58
2021/09/25 06:53:43;;;;;;;11.07;9.90;;;;;;;;;;5034235;28;20459;-58
2021/09/25 06:56:10;;;;;;;12.30;10.73;;;;;;;;;;5034377;28;20449;-58
2021/09/25 06:58:37;;;;;;;12.13;10.83;;;;;;;;;;5033843;28;20967;-57
2021/09/25 07:01:06;;;;;;;14.00;10.90;;;;;;;;;;5034037;28;20443;-58
2021/09/25 07:03:33;;;;;;;11.40;10.27;;;;;;;;;;5033736;28;20997;-58
2021/09/25 07:06:01;;;;;;;10.77;9.67;;;;;;;;;;5033585;28;20483;-58
2021/09/25 07:08:28;;;;;;;11.30;10.10;;;;;;;;;;5033954;28;20483;-56
2021/09/25 07:10:55;;;;;;;11.40;9.43;;;;;;;;;;5033594;28;20455;-58
2021/09/25 07:13:22;;;;;;;12.13;9.90;;;;;;;;;;5033904;28;20497;-57
2021/09/25 07:15:50;;;;;;;10.63;9.50;;;;;;;;;;5033707;28;20479;-57
2021/09/25 07:18:19;;;;;;;11.07;9.97;;;;;;;;;;5033668;28;20451;-58
2021/09/25 07:20:46;;;;;;;10.60;9.33;;;;;;;;;;5033488;28;20911;-58
2021/09/25 07:23:13;;;;;;;11.27;9.57;;;;;;;;;;5033729;28;20447;-57
2021/09/25 07:25:41;;;;;;;9.00;7.80;;;;;;;;;;5033511;28;20463;-57
2021/09/25 07:28:08;;;;;;;10.93;7.90;;;;;;;;;;5033378;28;20886;-57
2021/09/25 07:30:37;;;;;;;10.20;8.93;;;;;;;;;;5033331;28;20464;-57
2021/09/25 07:33:04;;;;;;;8.83;7.93;;;;;;;;;;5033449;28;20454;-57
2021/09/25 07:35:34;;;;;;;8.67;7.83;;;;;;;;;;5033521;28;20586;-58
2021/09/25 07:38:02;;;;;;;7.63;6.83;;;;;;;;;;5033713;28;20498;-58
2021/09/25 07:40:29;;;;;;;9.50;7.97;;;;;;;;;;5033384;28;20542;-57
2021/09/25 07:42:57;;;;;;;12.30;8.03;;;;;;;;;;5033461;28;20456;-58
2021/09/25 07:45:24;;;;;;;7.73;6.90;;;;;;;;;;5034280;28;20534;-58
2021/09/25 07:47:52;;;;;;;8.03;5.97;;;;;;;;;;5033593;28;20487;-58
2021/09/25 07:50:19;;;;;;;6.80;5.90;;;;;;;;;;5033308;28;21000;-58
2021/09/25 07:52:47;;;;;;;6.10;5.60;;;;;;;;;;5033134;28;20447;-58
2021/09/25 07:55:15;;;;;;;10.37;5.33;;;;;;;;;;5034096;28;20795;-58
2021/09/25 07:57:43;;;;;;;8.40;5.33;;;;;;;;;;5033261;28;20862;-58
2021/09/25 08:00:11;;;;;;;6.43;5.33;;;;;;;;;;5033081;28;20506;-58
2021/09/25 08:02:40;;;;;;;10.27;5.03;;;;;;;;;;5033001;28;20441;-58
2021/09/25 08:05:08;;;;;;;7.27;5.03;;;;;;;;;;5032731;28;20486;-58
2021/09/25 08:07:35;;;;;;;8.77;4.80;;;;;;;;;;5033116;28;20495;-58
2021/09/25 08:10:04;;;;;;;8.40;5.07;;;;;;;;;;5033085;28;20448;-58
2021/09/25 08:12:32;;;;;;;5.23;4.70;;;;;;;;;;5033101;28;20478;-58
2021/09/25 08:14:59;;;;;;;5.67;4.60;;;;;;;;;;5032756;28;20524;-57
2021/09/25 08:17:27;;;;;;;7.50;5.50;;;;;;;;;;5032738;28;20931;-59
2021/09/25 08:19:54;;;;;;;6.93;4.67;;;;;;;;;;5032906;28;20452;-59
2021/09/25 08:22:22;;;;;;;5.70;4.70;;;;;;;;;;5033024;28;20492;-57
2021/09/25 08:24:49;;;;;;;6.37;4.50;;;;;;;;;;5032878;28;20509;-58
2021/09/25 08:27:18;;;;;;;5.93;4.43;;;;;;;;;;5033027;28;20452;-58
2021/09/25 08:29:45;;;;;;;6.83;4.53;;;;;;;;;;5032885;28;20537;-58
2021/09/25 08:32:12;;;;;;;6.83;4.70;;;;;;;;;;5033027;28;20456;-58
2021/09/25 08:34:39;;;;;;;7.03;4.07;;;;;;;;;;5032347;28;20533;-58
2021/09/25 08:37:07;;;;;;;4.93;4.20;;;;;;;;;;5032565;28;20507;-58
2021/09/25 08:39:34;;;;;;;4.27;3.87;;;;;;;;;;5032849;28;20452;-58
2021/09/25 08:42:02;;;;;;;5.43;4.10;;;;;;;;;;5032413;28;20510;-58
2021/09/25 08:44:32;;;;;;;6.80;4.93;;;;;;;;;;5032287;28;21052;-58
2021/09/25 08:47:00;;;;;;;8.50;4.20;;;;;;;;;;5032303;28;20801;-57
2021/09/25 08:49:27;;;;;;;6.43;4.73;;;;;;;;;;5032771;28;20523;-57
2021/09/25 08:51:54;;;;;;;7.13;4.93;;;;;;;;;;5033150;28;20506;-58
2021/09/25 08:54:21;;;;;;;7.40;4.20;;;;;;;;;;5035054;28;20468;-59
2021/09/25 08:56:49;;;;;;;10.27;5.07;;;;;;;;;;5036048;28;20487;-58
2021/09/25 08:59:16;;;;;;;7.33;4.83;;;;;;;;;;5036115;28;20450;-59
2021/09/25 09:01:45;;;;;;;7.70;4.60;;;;;;;;;;5035654;28;20842;-57
2021/09/25 09:04:13;;;;;;;5.57;4.60;;;;;;;;;;5036166;28;20489;-58
2021/09/25 09:06:40;;;;;;;9.03;5.20;;;;;;;;;;5035975;28;21003;-59
2021/09/25 09:09:08;;;;;;;6.07;4.07;;;;;;;;;;5035881;28;20552;-59
2021/09/25 09:11:41;;;;;;;6.00;4.00;;;;;;;;;;5036510;28;20437;-58
2021/09/25 09:14:09;;;;;;;5.97;4.17;;;;;;;;;;5036160;28;20511;-60
2021/09/25 09:16:36;;;;;;;6.73;4.97;;;;;;;;;;5035946;28;20945;-60
2021/09/25 09:19:05;;;;;;;7.77;4.67;;;;;;;;;;5035931;28;20507;-59
2021/09/25 09:21:32;;;;;;;8.20;5.07;;;;;;;;;;5036033;28;20507;-60
2021/09/25 09:24:01;;;;;;;6.47;4.90;;;;;;;;;;5035923;28;20461;-59
2021/09/25 09:26:29;;;;;;;9.40;4.63;;;;;;;;;;5035935;28;20452;-59
2021/09/25 09:28:57;;;;;;;6.03;4.60;;;;;;;;;;5035612;28;20477;-59
2021/09/25 09:31:25;;;;;;;8.90;4.70;;;;;;;;;;5036077;28;20523;-58
2021/09/25 09:33:54;;;;;;;4.70;3.97;;;;;;;;;;5036215;28;20445;-58
2021/09/25 09:36:27;;;;;;;9.83;4.47;;;;;;;;;;5043967;28;20949;-58
2021/09/25 09:38:55;;;;;;;5.53;4.30;;;;;;;;;;5042537;28;20441;-58
2021/09/25 09:41:25;;;;;;;6.93;4.37;;;;;;;;;;5038207;28;20563;-60
2021/09/25 09:43:54;;;;;;;6.27;4.80;;;;;;;;;;5035506;28;20445;-57
2021/09/25 09:46:28;;;;;;;6.13;4.47;;;;;;;;;;5035719;28;20449;-59
2021/09/25 09:48:55;;;;;;;9.03;5.10;;;;;;;;;;5035656;28;20516;-58
2021/09/25 09:51:36;;;;;;;6.77;4.33;;;;;;;;;;5035762;28;20507;-58
2021/09/25 09:54:03;;;;;;;9.80;4.50;;;;;;;;;;5035810;28;20468;-58
2021/09/25 09:56:30;;;;;;;4.30;3.63;;;;;;;;;;5035947;28;20445;-60
2021/09/25 09:58:59;;;;;;;7.40;4.80;;;;;;;;;;5035793;28;20442;-58
2021/09/25 10:01:26;;;;;;;7.40;4.60;;;;;;;;;;5034791;28;20816;-57
2021/09/25 10:03:54;;;;;;;6.63;4.83;;;;;;;;;;5035012;28;20449;-58
2021/09/25 10:06:21;;;;;;;5.93;4.83;;;;;;;;;;5034644;28;20968;-57
2021/09/25 10:08:50;;;;;;;9.23;5.90;;;;;;;;;;5034677;28;20988;-58
2021/09/25 10:11:17;;;;;;;8.07;5.77;;;;;;;;;;5034768;28;20503;-58
2021/09/25 10:13:45;;;;;;;8.80;5.40;;;;;;;;;;5035309;28;20491;-58
2021/09/25 10:16:13;;;;;;;6.40;5.00;;;;;;;;;;5034368;28;20506;-58
2021/09/25 10:18:41;;;;;;;5.50;4.90;;;;;;;;;;5034903;28;20445;-58
2021/09/25 10:21:10;;;;;;;4.97;4.40;;;;;;;;;;5034710;28;20453;-59
2021/09/25 10:23:38;;;;;;;10.53;6.03;;;;;;;;;;5034703;28;20453;-58
2021/09/25 10:26:07;;;;;;;11.53;5.30;;;;;;;;;;5035426;28;20503;-58
2021/09/25 10:28:34;;;;;;;9.57;5.33;;;;;;;;;;5034708;28;20508;-59
2021/09/25 10:31:01;;;;;;;5.17;4.43;;;;;;;;;;5034857;28;20930;-58
2021/09/25 10:33:29;;;;;;;5.00;4.53;;;;;;;;;;5034353;28;20457;-58
2021/09/25 10:35:56;;;;;;;9.57;5.10;;;;;;;;;;5034854;28;20511;-58
2021/09/25 10:38:34;;;;;;;7.47;5.77;;;;;;;;;;5034434;28;20450;-58
2021/09/25 10:41:16;;;;;;;7.00;5.20;;;;;;;;;;5034699;28;20449;-59
2021/09/25 10:43:44;;;;;;;9.53;6.20;;;;;;;;;;5034440;28;20457;-58
2021/09/25 10:46:12;;;;;;;7.43;6.00;;;;;;;;;;5034025;28;20552;-58
2021/09/25 10:48:46;;;;;;;6.70;6.00;;;;;;;;;;5034087;28;20890;-60
2021/09/25 10:51:16;;;;;;;7.97;4.83;;;;;;;;;;5033921;28;20413;-59
2021/09/25 10:53:44;;;;;;;5.27;4.37;;;;;;;;;;5033537;28;20983;-58
2021/09/25 10:56:17;;;;;;;4.90;3.90;;;;;;;;;;5033742;28;20499;-59
2021/09/25 10:58:52;;;;;;;5.23;3.73;;;;;;;;;;5033689;28;20572;-60
2021/09/25 11:01:20;;;;;;;9.03;4.43;;;;;;;;;;5034430;28;20483;-61
2021/09/25 11:04:04;;;;;;;5.53;4.50;;;;;;;;;;5033728;28;20823;-59
2021/09/25 11:06:42;;;;;;;6.57;3.43;;;;;;;;;;5033640;28;20476;-57
2021/09/25 11:09:11;;;;;;;5.80;3.97;;;;;;;;;;5033364;28;20481;-60
2021/09/25 11:11:42;;;;;;;6.53;3.70;;;;;;;;;;5034646;28;20589;-57
2021/09/25 11:14:10;;;;;;;4.67;3.27;;;;;;;;;;5033261;28;20932;-59
2021/09/25 11:16:52;;;;;;;5.63;3.57;;;;;;;;;;5033193;28;20549;-58
2021/09/25 11:19:32;;;;;;;4.07;3.60;;;;;;;;;;5033340;28;20928;-59
2021/09/25 11:22:01;;;;;;;7.10;4.30;;;;;;;;;;5033976;28;20445;-59
2021/09/25 11:24:29;;;;;;;4.37;3.80;;;;;;;;;;5033359;28;20534;-59
2021/09/25 11:26:58;;;;;;;6.00;4.47;;;;;;;;;;5033612;28;20449;-58
2021/09/25 11:29:25;;;;;;;5.27;4.70;;;;;;;;;;5033291;28;20485;-59
2021/09/25 11:32:03;;;;;;;5.80;4.27;;;;;;;;;;5032953;28;20866;-59
2021/09/25 11:34:31;;;;;;;7.87;4.20;;;;;;;;;;5033309;28;20555;-60
2021/09/25 11:36:59;;;;;;;6.03;3.77;;;;;;;;;;5033196;28;20933;-58
2021/09/25 11:39:36;;;;;;;5.60;3.53;;;;;;;;;;5033338;28;20495;-59
2021/09/25 11:42:12;;;;;;;4.77;4.13;;;;;;;;;;5033017;28;20928;-59
2021/09/25 11:44:46;;;;;;;7.23;4.20;;;;;;;;;;5033032;28;20469;-60
2021/09/25 11:47:21;;;;;;;4.50;4.10;;;;;;;;;;5032756;28;20448;-58
2021/09/25 11:49:49;;;;;;;5.90;4.33;;;;;;;;;;5033538;28;20465;-59
2021/09/25 11:52:16;;;;;;;7.67;4.10;;;;;;;;;;5032904;28;20457;-59
2021/09/25 11:54:44;;;;;;;6.50;4.10;;;;;;;;;;5033157;28;20492;-60
2021/09/25 11:57:16;;;;;;;5.33;3.97;;;;;;;;;;5033536;28;20449;-59
2021/09/25 11:59:44;;;;;;;5.23;4.07;;;;;;;;;;5033926;28;20437;-59
2021/09/25 12:02:11;;;;;;;4.53;3.47;;;;;;;;;;5033516;28;20449;-59
2021/09/25 12:04:39;;;;;;;4.80;3.57;;;;;;;;;;5032951;28;20488;-58
2021/09/25 12:07:06;;;;;;;5.47;4.07;;;;;;;;;;5033009;28;20457;-60
2021/09/25 12:09:40;;;;;;;4.17;3.60;;;;;;;;;;5056879;22;20507;-60
2021/09/25 12:12:08;;;;;;;5.00;4.30;;;;;;;;;;5035175;28;20453;-61
2021/09/25 12:14:49;;;;;;;4.83;4.17;;;;;;;;;;5032980;28;20453;-60
2021/09/25 12:17:17;;;;;;;4.77;4.30;;;;;;;;;;5033786;28;20786;-61
2021/09/25 12:19:46;;;;;;;6.10;4.40;;;;;;;;;;5033455;28;20474;-61
2021/09/25 12:22:20;;;;;;;8.03;6.17;;;;;;;;;;5033070;28;20485;-60
2021/09/25 12:24:48;;;;;;;8.30;4.00;;;;;;;;;;5033357;28;20464;-61
2021/09/25 12:27:27;;;;;;;7.13;4.50;;;;;;;;;;5032983;28;20445;-62
2021/09/25 12:30:07;;;;;;;4.67;3.27;;;;;;;;;;5036429;28;20992;-62
2021/09/25 12:32:37;;;;;;;4.60;3.03;;;;;;;;;;5038057;28;20433;-63
2021/09/25 12:35:04;;;;;;;7.27;3.90;;;;;;;;;;5037416;28;20540;-60
2021/09/25 12:37:32;;;;;;;4.30;3.70;;;;;;;;;;5037361;28;20457;-61
2021/09/25 12:40:01;;;;;;;4.87;3.67;;;;;;;;;;5037403;28;20465;-61
2021/09/25 12:42:29;;;;;;;5.20;4.33;;;;;;;;;;5037751;28;20509;-61
2021/09/25 12:45:02;;;;;;;8.30;3.20;;;;;;;;;;5037337;28;20440;-61
2021/09/25 12:47:32;;;;;;;5.43;3.50;;;;;;;;;;5039122;28;20532;-61
2021/09/25 12:50:16;;;;;;;6.20;3.60;;;;;;;;;;5039847;28;20559;-61
2021/09/25 12:52:46;;;;;;;5.90;3.80;;;;;;;;;;5036543;28;20453;-61
2021/09/25 12:55:15;;;;;;;6.83;3.57;;;;;;;;;;5036496;28;20454;-61
2021/09/25 12:57:43;;;;;;;4.83;3.83;;;;;;;;;;5036322;28;20449;-62
2021/09/25 13:00:12;;;;;;;4.47;3.93;;;;;;;;;;5036140;28;20461;-61
2021/09/25 13:02:40;;;;;;;5.53;3.40;;;;;;;;;;5036236;28;20805;-61
2021/09/25 13:05:10;;;;;;;4.37;3.60;;;;;;;;;;5035944;28;20449;-60
2021/09/25 13:07:38;;;;;;;3.93;3.57;;;;;;;;;;5035762;28;20479;-61
2021/09/25 13:10:06;;;;;;;6.00;3.97;;;;;;;;;;5035878;28;20520;-61
2021/09/25 13:12:36;;;;;;;4.20;3.20;;;;;;;;;;5036073;28;20449;-61
2021/09/25 13:15:07;;;;;;;3.90;2.63;;;;;;;;;;5036260;28;20801;-59
2021/09/25 13:17:37;;;;;;;4.20;3.30;;;;;;;;;;5035706;28;20433;-60
2021/09/25 13:20:06;;;;;;;7.10;3.70;;;;;;;;;;5035550;28;21059;-61
2021/09/25 13:22:33;;;;;;;4.10;3.33;;;;;;;;;;5035650;28;20449;-62
2021/09/25 13:25:01;;;;;;;7.40;3.90;;;;;;;;;;5035978;28;20449;-62
2021/09/25 13:27:30;;;;;;;4.60;3.53;;;;;;;;;;5035813;28;20941;-61
2021/09/25 13:29:58;;;;;;;4.37;3.63;;;;;;;;;;5036042;28;20485;-62
2021/09/25 13:32:26;;;;;;;3.33;3.03;;;;;;;;;;5035370;28;21013;-60
2021/09/25 13:34:55;;;;;;;3.77;2.93;;;;;;;;;;5035772;28;20445;-61
2021/09/25 13:37:22;;;;;;;3.47;3.07;;;;;;;;;;5035422;28;20441;-58
2021/09/25 13:39:49;;;;;;;4.00;3.27;;;;;;;;;;5035224;28;20469;-61
2021/09/25 13:42:17;;;;;;;4.00;2.90;;;;;;;;;;5035521;28;20453;-59
2021/09/25 13:44:44;;;;;;;4.07;3.60;;;;;;;;;;5035287;28;20503;-61
2021/09/25 13:47:11;;;;;;;4.10;3.07;;;;;;;;;;5035469;28;20449;-61
2021/09/25 13:49:39;;;;;;;4.20;3.67;;;;;;;;;;5035198;28;20484;-61
2021/09/25 13:52:08;;;;;;;6.47;2.90;;;;;;;;;;5035487;28;20457;-61
2021/09/25 13:54:36;;;;;;;7.07;4.20;;;;;;;;;;5035113;28;20945;-60
2021/09/25 13:57:05;;;;;;;4.50;2.80;;;;;;;;;;5035358;28;20506;-60
2021/09/25 13:59:32;;;;;;;3.00;2.70;;;;;;;;;;5034883;28;20476;-60
2021/09/25 14:01:59;;;;;;;3.00;2.70;;;;;;;;;;5035404;28;20523;-61
2021/09/25 14:04:27;;;;;;;2.50;2.20;;;;;;;;;;5035331;28;20453;-61
2021/09/25 14:06:54;;;;;;;2.57;2.30;;;;;;;;;;5035034;28;20457;-60
2021/09/25 14:09:23;;;;;;;3.30;2.37;;;;;;;;;;5034541;28;20531;-61
2021/09/25 14:11:50;;;;;;;6.10;2.97;;;;;;;;;;5035133;28;20456;-60
2021/09/25 14:14:17;;;;;;;2.50;2.30;;;;;;;;;;5034889;28;20499;-60
2021/09/25 14:16:45;;;;;;;4.47;3.33;;;;;;;;;;5034802;28;20511;-59
2021/09/25 14:19:15;;;;;;;3.03;2.70;;;;;;;;;;5034710;28;20654;-60
2021/09/25 14:21:42;;;;;;;3.70;2.60;;;;;;;;;;5035490;28;20425;-57
2021/09/25 14:24:10;;;;;;;5.13;2.97;;;;;;;;;;5035255;28;20465;-60
2021/09/25 14:26:39;;;;;;;3.77;2.77;;;;;;;;;;5034324;28;20949;-60
2021/09/25 14:29:07;;;;;;;5.17;3.10;;;;;;;;;;5034447;28;20481;-58
2021/09/25 14:31:35;;;;;;;4.27;3.40;;;;;;;;;;5035264;28;20485;-60
2021/09/25 14:34:02;;;;;;;5.00;3.00;;;;;;;;;;5034174;28;20449;-60
2021/09/25 14:36:29;;;;;;;3.30;3.00;;;;;;;;;;5034565;28;20802;-61
2021/09/25 14:38:57;;;;;;;3.73;2.90;;;;;;;;;;5033981;28;20500;-59
2021/09/25 14:41:24;;;;;;;4.43;3.50;;;;;;;;;;5034803;28;20487;-61
2021/09/25 14:43:53;;;;;;;4.50;4.10;;;;;;;;;;5034420;28;20452;-59